createdAt,value
2017-02-18T00:00:29.638Z,44.86
2017-02-18T00:01:10.285Z,44.28
2017-02-18T00:01:50.929Z,44.93
2017-02-18T00:02:31.577Z,44.86
2017-02-18T00:03:12.232Z,44.65
2017-02-18T00:03:52.864Z,44.65
2017-02-18T00:04:33.499Z,44.55
2017-02-18T00:05:14.140Z,44.65
2017-02-18T00:05:54.780Z,44.65
2017-02-18T00:06:35.429Z,44.65
2017-02-18T00:07:16.067Z,44.65
2017-02-18T00:07:56.714Z,44.65
2017-02-18T00:08:37.352Z,44.86
2017-02-18T00:09:17.993Z,44.86
2017-02-18T00:09:58.640Z,44.86
2017-02-18T00:10:39.276Z,44.96
2017-02-18T00:11:19.979Z,44.38
2017-02-18T00:12:00.613Z,44.38
2017-02-18T00:12:41.251Z,44.55
2017-02-18T00:13:21.935Z,44.57
2017-02-18T00:14:02.573Z,44.38
2017-02-18T00:14:43.214Z,44.84
2017-02-18T00:15:23.865Z,44.96
2017-02-18T00:16:04.513Z,44.93
2017-02-18T00:16:45.152Z,45.03
2017-02-18T00:17:25.807Z,44.93
2017-02-18T00:18:06.444Z,44.74
2017-02-18T00:18:47.166Z,44.74
2017-02-18T00:19:27.713Z,44.84
2017-02-18T00:20:08.357Z,44.48
2017-02-18T00:20:49.047Z,44.93
2017-02-18T00:21:29.644Z,44.84
2017-02-18T00:22:10.305Z,44.76
2017-02-18T00:22:50.943Z,44.84
2017-02-18T00:23:31.576Z,44.84
2017-02-18T00:24:12.212Z,44.74
2017-02-18T00:24:52.906Z,44.76
2017-02-18T00:25:33.487Z,44.65
2017-02-18T00:26:14.124Z,44.65
2017-02-18T00:26:54.765Z,44.55
2017-02-18T00:27:35.407Z,44.74
2017-02-18T00:28:16.081Z,44.74
2017-02-18T00:28:56.715Z,44.74
2017-02-18T00:29:37.350Z,44.84
2017-02-18T00:30:17.991Z,44.65
2017-02-18T00:30:58.723Z,44.93
2017-02-18T00:31:39.374Z,44.65
2017-02-18T00:32:20.007Z,44.65
2017-02-18T00:33:00.709Z,44.65
2017-02-18T00:33:41.348Z,44.74
2017-02-18T00:34:21.995Z,44.84
2017-02-18T00:35:02.724Z,44.93
2017-02-18T00:35:43.356Z,44.84
2017-02-18T00:36:23.993Z,44.93
2017-02-18T00:37:04.714Z,44.76
2017-02-18T00:37:45.357Z,44.76
2017-02-18T00:38:25.995Z,44.65
2017-02-18T00:39:06.639Z,44.65
2017-02-18T00:39:47.342Z,44.74
2017-02-18T00:40:27.925Z,44.65
2017-02-18T00:41:08.579Z,44.55
2017-02-18T00:41:49.230Z,44.65
2017-02-18T00:42:29.875Z,44.84
2017-02-18T00:43:10.519Z,44.84
2017-02-18T00:43:51.150Z,44.74
2017-02-18T00:44:31.790Z,44.93
2017-02-18T00:45:12.460Z,44.84
2017-02-18T00:45:53.099Z,44.74
2017-02-18T00:46:33.736Z,44.74
2017-02-18T00:47:14.463Z,44.65
2017-02-18T00:47:55.585Z,44.74
2017-02-18T00:48:36.221Z,44.84
2017-02-18T00:49:16.863Z,44.84
2017-02-18T00:49:57.546Z,44.74
2017-02-18T00:50:38.182Z,44.84
2017-02-18T00:51:18.818Z,44.93
2017-02-18T00:51:59.469Z,44.65
2017-02-18T00:52:40.103Z,44.65
2017-02-18T00:53:20.756Z,44.65
2017-02-18T00:54:01.399Z,44.74
2017-02-18T00:54:42.115Z,44.65
2017-02-18T00:55:22.758Z,44.65
2017-02-18T00:56:03.392Z,44.65
2017-02-18T00:56:44.022Z,44.65
2017-02-18T00:57:24.701Z,44.74
2017-02-18T00:58:05.350Z,44.65
2017-02-18T00:58:45.986Z,44.65
2017-02-18T00:59:26.621Z,44.74
2017-02-18T01:00:07.266Z,44.74
2017-02-18T01:00:47.997Z,44.74
2017-02-18T01:01:28.630Z,44.65
2017-02-18T01:02:09.270Z,44.74
2017-02-18T01:02:49.961Z,44.65
2017-02-18T01:03:30.559Z,44.74
2017-02-18T01:04:11.194Z,44.65
2017-02-18T01:04:51.829Z,44.65
2017-02-18T01:05:32.535Z,44.65
2017-02-18T01:06:13.186Z,44.84
2017-02-18T01:06:53.842Z,44.74
2017-02-18T01:07:34.459Z,44.84
2017-02-18T01:08:15.113Z,44.65
2017-02-18T01:08:55.744Z,44.55
2017-02-18T01:09:36.378Z,44.74
2017-02-18T01:10:17.011Z,44.84
2017-02-18T01:10:57.646Z,44.74
2017-02-18T01:11:38.280Z,44.65
2017-02-18T01:12:18.918Z,44.74
2017-02-18T01:12:59.653Z,44.65
2017-02-18T01:13:40.416Z,44.65
2017-02-18T01:14:21.053Z,44.84
2017-02-18T01:15:01.685Z,44.93
2017-02-18T01:15:42.311Z,44.84
2017-02-18T01:16:22.944Z,44.84
2017-02-18T01:17:03.575Z,45.03
2017-02-18T01:17:44.216Z,45.03
2017-02-18T01:18:24.842Z,45.03
2017-02-18T01:19:05.476Z,45.03
2017-02-18T01:19:46.107Z,44.84
2017-02-18T01:20:26.749Z,45.03
2017-02-18T01:21:07.400Z,45.03
2017-02-18T01:21:48.038Z,44.93
2017-02-18T01:22:28.661Z,45.03
2017-02-18T01:23:09.306Z,44.93
2017-02-18T01:23:49.933Z,44.74
2017-02-18T01:24:30.564Z,44.65
2017-02-18T01:25:11.191Z,44.65
2017-02-18T01:25:51.911Z,44.65
2017-02-18T01:26:32.539Z,44.65
2017-02-18T01:27:13.161Z,44.84
2017-02-18T01:27:53.793Z,45.03
2017-02-18T01:28:34.431Z,44.93
2017-02-18T01:29:15.067Z,44.93
2017-02-18T01:29:55.697Z,44.84
2017-02-18T01:30:36.338Z,44.93
2017-02-18T01:31:16.972Z,44.74
2017-02-18T01:31:57.596Z,44.93
2017-02-18T01:32:38.255Z,45.03
2017-02-18T01:33:18.870Z,45.03
2017-02-18T01:33:59.496Z,45.03
2017-02-18T01:34:40.125Z,45.03
2017-02-18T01:35:20.797Z,45.22
2017-02-18T01:36:01.429Z,44.93
2017-02-18T01:36:42.054Z,44.84
2017-02-18T01:37:22.721Z,45.03
2017-02-18T01:38:03.356Z,45.03
2017-02-18T01:38:43.980Z,44.93
2017-02-18T01:39:24.613Z,45.03
2017-02-18T01:40:05.238Z,45.03
2017-02-18T01:40:45.866Z,45.03
2017-02-18T01:41:26.544Z,44.93
2017-02-18T01:42:07.169Z,44.74
2017-02-18T01:42:47.789Z,44.93
2017-02-18T01:43:28.472Z,45.13
2017-02-18T01:44:09.097Z,45.13
2017-02-18T01:44:49.723Z,45.13
2017-02-18T01:45:30.390Z,45.03
2017-02-18T01:46:11.038Z,45.03
2017-02-18T01:46:51.665Z,44.93
2017-02-18T01:47:32.355Z,45.13
2017-02-18T01:48:12.989Z,45.03
2017-02-18T01:48:53.625Z,44.74
2017-02-18T01:49:34.285Z,44.84
2017-02-18T01:50:14.905Z,44.93
2017-02-18T01:50:55.537Z,45.03
2017-02-18T01:51:36.168Z,44.84
2017-02-18T01:52:16.829Z,44.93
2017-02-18T01:52:57.459Z,44.93
2017-02-18T01:53:38.095Z,45.03
2017-02-18T01:54:18.717Z,44.93
2017-02-18T01:54:59.337Z,44.93
2017-02-18T01:55:39.980Z,44.93
2017-02-18T01:56:20.607Z,45.13
2017-02-18T01:57:01.241Z,44.93
2017-02-18T01:57:41.978Z,44.84
2017-02-18T01:58:22.720Z,44.84
2017-02-18T01:59:03.374Z,45.13
2017-02-18T01:59:44.035Z,45.03
2017-02-18T02:00:24.662Z,45.03
2017-02-18T02:01:05.398Z,45.13
2017-02-18T02:01:45.993Z,44.93
2017-02-18T02:02:26.624Z,45.13
2017-02-18T02:03:07.254Z,45.13
2017-02-18T02:03:47.881Z,45.13
2017-02-18T02:04:28.529Z,45.13
2017-02-18T02:05:09.157Z,45.22
2017-02-18T02:05:49.785Z,45.32
2017-02-18T02:06:30.529Z,44.93
2017-02-18T02:07:11.153Z,45.22
2017-02-18T02:07:51.782Z,45.32
2017-02-18T02:08:32.406Z,45.13
2017-02-18T02:09:13.035Z,45.22
2017-02-18T02:09:53.664Z,45.22
2017-02-18T02:10:34.308Z,45.13
2017-02-18T02:11:14.933Z,45.13
2017-02-18T02:11:55.553Z,45.32
2017-02-18T02:12:36.275Z,45.32
2017-02-18T02:13:16.912Z,45.22
2017-02-18T02:13:57.547Z,45.22
2017-02-18T02:14:38.175Z,44.84
2017-02-18T02:15:18.844Z,45.22
2017-02-18T02:15:59.469Z,45.22
2017-02-18T02:16:40.162Z,45.13
2017-02-18T02:17:20.805Z,45.13
2017-02-18T02:18:01.436Z,45.32
2017-02-18T02:18:42.086Z,45.22
2017-02-18T02:19:22.730Z,45.32
2017-02-18T02:20:03.378Z,45.22
2017-02-18T02:20:44.010Z,45.22
2017-02-18T02:21:24.700Z,45.32
2017-02-18T02:22:05.335Z,45.32
2017-02-18T02:22:45.969Z,45.03
2017-02-18T02:23:26.668Z,45.22
2017-02-18T02:24:07.301Z,45.03
2017-02-18T02:24:47.929Z,45.22
2017-02-18T02:25:28.586Z,45.42
2017-02-18T02:26:09.212Z,45.61
2017-02-18T02:26:49.838Z,45.42
2017-02-18T02:27:30.468Z,46.09
2017-02-18T02:28:11.113Z,45.99
2017-02-18T02:28:51.819Z,45.99
2017-02-18T02:29:32.470Z,45.99
2017-02-18T02:30:13.120Z,45.9
2017-02-18T02:30:53.733Z,45.8
2017-02-18T02:31:34.358Z,45.8
2017-02-18T02:32:14.985Z,45.61
2017-02-18T02:32:55.612Z,45.51
2017-02-18T02:33:36.246Z,45.7
2017-02-18T02:34:16.868Z,45.61
2017-02-18T02:34:57.528Z,45.51
2017-02-18T02:35:38.152Z,45.51
2017-02-18T02:36:18.784Z,45.9
2017-02-18T02:36:59.413Z,45.9
2017-02-18T02:37:40.053Z,45.8
2017-02-18T02:38:20.683Z,45.8
2017-02-18T02:39:01.412Z,45.9
2017-02-18T02:39:42.040Z,45.99
2017-02-18T02:40:22.679Z,45.99
2017-02-18T02:41:03.305Z,45.61
2017-02-18T02:41:43.929Z,45.8
2017-02-18T02:42:24.560Z,46.19
2017-02-18T02:43:05.183Z,45.99
2017-02-18T02:43:45.814Z,46.09
2017-02-18T02:44:26.452Z,45.7
2017-02-18T02:45:07.156Z,45.97
2017-02-18T02:45:47.785Z,46.19
2017-02-18T02:46:28.415Z,46.09
2017-02-18T02:47:09.142Z,46.47
2017-02-18T02:47:49.764Z,46.67
2017-02-18T02:48:30.396Z,46.67
2017-02-18T02:49:11.019Z,46.38
2017-02-18T02:49:51.697Z,46.28
2017-02-18T02:50:32.336Z,45.8
2017-02-18T02:51:12.966Z,46.38
2017-02-18T02:51:53.668Z,46.19
2017-02-18T02:52:34.310Z,45.99
2017-02-18T02:53:14.939Z,46.19
2017-02-18T02:53:55.646Z,46.28
2017-02-18T02:54:36.316Z,46.57
2017-02-18T02:55:16.941Z,46.57
2017-02-18T02:55:57.562Z,46.57
2017-02-18T02:56:38.181Z,45.99
2017-02-18T02:57:18.805Z,46.67
2017-02-18T02:57:59.538Z,46.09
2017-02-18T02:58:40.138Z,46.47
2017-02-18T02:59:20.817Z,46.57
2017-02-18T03:00:01.497Z,46.47
2017-02-18T03:00:42.126Z,46.67
2017-02-18T03:01:22.771Z,46.77
2017-02-18T03:02:03.451Z,46.38
2017-02-18T03:02:44.081Z,46.28
2017-02-18T03:03:24.710Z,46.47
2017-02-18T03:04:05.377Z,46.38
2017-02-18T03:04:46.010Z,46.28
2017-02-18T03:05:26.636Z,46.64
2017-02-18T03:06:07.316Z,46.09
2017-02-18T03:06:47.940Z,45.99
2017-02-18T03:07:28.581Z,46.57
2017-02-18T03:08:09.300Z,46.67
2017-02-18T03:08:49.934Z,46.67
2017-02-18T03:09:30.560Z,46.47
2017-02-18T03:10:11.274Z,46.67
2017-02-18T03:10:51.905Z,46.47
2017-02-18T03:11:32.574Z,46.09
2017-02-18T03:12:13.162Z,46.57
2017-02-18T03:12:53.797Z,46.57
2017-02-18T03:13:34.440Z,46.09
2017-02-18T03:14:15.078Z,46.67
2017-02-18T03:14:55.827Z,46.38
2017-02-18T03:15:36.488Z,46.77
2017-02-18T03:16:17.138Z,45.99
2017-02-18T03:16:57.776Z,46.67
2017-02-18T03:17:38.481Z,46.45
2017-02-18T03:18:19.153Z,46.67
2017-02-18T03:18:59.754Z,46.09
2017-02-18T03:19:40.386Z,46.09
2017-02-18T03:20:21.013Z,46.28
2017-02-18T03:21:01.733Z,46.19
2017-02-18T03:21:42.347Z,46.47
2017-02-18T03:22:22.974Z,45.97
2017-02-18T03:23:03.656Z,46.16
2017-02-18T03:23:44.306Z,46.06
2017-02-18T03:24:24.943Z,45.78
2017-02-18T03:25:05.713Z,45.61
2017-02-18T03:25:46.334Z,45.8
2017-02-18T03:26:26.966Z,45.59
2017-02-18T03:27:07.591Z,45.7
2017-02-18T03:27:48.214Z,45.7
2017-02-18T03:28:28.864Z,45.7
2017-02-18T03:29:09.514Z,45.61
2017-02-18T03:29:50.140Z,45.7
2017-02-18T03:30:30.770Z,45.7
2017-02-18T03:31:12.153Z,45.61
2017-02-18T03:31:52.790Z,45.7
2017-02-18T03:32:33.417Z,45.8
2017-02-18T03:33:14.039Z,45.7
2017-02-18T03:33:54.681Z,45.7
2017-02-18T03:34:35.388Z,45.7
2017-02-18T03:35:16.023Z,45.7
2017-02-18T03:35:56.676Z,45.7
2017-02-18T03:36:37.299Z,45.51
2017-02-18T03:37:17.930Z,45.8
2017-02-18T03:37:58.649Z,45.51
2017-02-18T03:38:39.181Z,45.7
2017-02-18T03:39:19.807Z,45.7
2017-02-18T03:40:00.439Z,45.61
2017-02-18T03:40:41.062Z,45.68
2017-02-18T03:41:21.691Z,45.7
2017-02-18T03:42:02.318Z,45.61
2017-02-18T03:42:42.942Z,45.7
2017-02-18T03:43:23.590Z,45.8
2017-02-18T03:44:04.269Z,45.68
2017-02-18T03:44:44.846Z,45.7
2017-02-18T03:45:25.552Z,45.7
2017-02-18T03:46:06.183Z,45.68
2017-02-18T03:46:46.804Z,45.68
2017-02-18T03:47:27.445Z,45.68
2017-02-18T03:48:08.060Z,45.68
2017-02-18T03:48:48.695Z,45.78
2017-02-18T03:49:29.333Z,45.49
2017-02-18T03:50:09.957Z,45.97
2017-02-18T03:50:50.620Z,45.42
2017-02-18T03:51:31.285Z,45.42
2017-02-18T03:52:11.913Z,45.39
2017-02-18T03:52:52.632Z,45.59
2017-02-18T03:53:33.261Z,45.49
2017-02-18T03:54:13.885Z,45.87
2017-02-18T03:54:54.594Z,45.97
2017-02-18T03:55:35.228Z,45.42
2017-02-18T03:56:15.899Z,45.42
2017-02-18T03:56:56.507Z,45.49
2017-02-18T03:57:37.137Z,46.16
2017-02-18T03:58:17.826Z,46.06
2017-02-18T03:58:58.406Z,45.97
2017-02-18T03:59:39.031Z,45.87
2017-02-18T04:00:19.677Z,46.16
2017-02-18T04:01:00.299Z,45.97
2017-02-18T04:01:40.990Z,45.49
2017-02-18T04:02:21.568Z,45.29
2017-02-18T04:03:02.194Z,45.42
2017-02-18T04:03:42.913Z,45.32
2017-02-18T04:04:23.538Z,45.01
2017-02-18T04:05:04.162Z,45.2
2017-02-18T04:05:44.796Z,45.29
2017-02-18T04:06:25.423Z,45.29
2017-02-18T04:07:06.055Z,45.1
2017-02-18T04:07:46.776Z,45.2
2017-02-18T04:08:27.415Z,45.39
2017-02-18T04:09:08.044Z,45.39
2017-02-18T04:09:48.672Z,45.29
2017-02-18T04:10:29.304Z,45.01
2017-02-18T04:11:09.930Z,44.82
2017-02-18T04:11:50.612Z,45.01
2017-02-18T04:12:31.244Z,45.01
2017-02-18T04:13:11.926Z,45.01
2017-02-18T04:13:52.572Z,45.01
2017-02-18T04:14:33.202Z,44.91
2017-02-18T04:15:13.825Z,44.91
2017-02-18T04:15:54.456Z,45.01
2017-02-18T04:16:35.182Z,44.84
2017-02-18T04:17:15.714Z,44.82
2017-02-18T04:17:56.370Z,44.72
2017-02-18T04:18:37.009Z,44.62
2017-02-18T04:19:17.633Z,44.74
2017-02-18T04:19:58.266Z,44.62
2017-02-18T04:20:38.893Z,44.62
2017-02-18T04:21:19.526Z,44.62
2017-02-18T04:22:00.181Z,44.72
2017-02-18T04:22:40.816Z,45.01
2017-02-18T04:23:21.436Z,45.01
2017-02-18T04:24:02.074Z,44.91
2017-02-18T04:24:42.707Z,44.82
2017-02-18T04:25:23.346Z,44.82
2017-02-18T04:26:04.049Z,45.01
2017-02-18T04:26:44.682Z,45.01
2017-02-18T04:27:25.320Z,44.91
2017-02-18T04:28:05.953Z,45.1
2017-02-18T04:28:46.585Z,44.91
2017-02-18T04:29:27.223Z,44.82
2017-02-18T04:30:07.849Z,44.72
2017-02-18T04:30:48.487Z,44.82
2017-02-18T04:31:29.113Z,44.82
2017-02-18T04:32:09.755Z,44.72
2017-02-18T04:32:50.383Z,44.72
2017-02-18T04:33:31.002Z,44.91
2017-02-18T04:34:11.626Z,44.82
2017-02-18T04:34:52.264Z,44.53
2017-02-18T04:35:32.897Z,44.72
2017-02-18T04:36:13.533Z,44.72
2017-02-18T04:36:54.163Z,44.91
2017-02-18T04:37:34.845Z,44.91
2017-02-18T04:38:15.469Z,45.01
2017-02-18T04:38:56.123Z,45.1
2017-02-18T04:39:36.803Z,44.91
2017-02-18T04:40:17.434Z,45.01
2017-02-18T04:40:58.061Z,44.82
2017-02-18T04:41:38.789Z,45.01
2017-02-18T04:42:19.409Z,44.72
2017-02-18T04:43:00.037Z,44.82
2017-02-18T04:43:40.734Z,44.91
2017-02-18T04:44:21.375Z,44.91
2017-02-18T04:45:02.002Z,44.82
2017-02-18T04:45:42.625Z,44.91
2017-02-18T04:46:23.256Z,45.2
2017-02-18T04:47:03.890Z,45.2
2017-02-18T04:47:44.510Z,45.2
2017-02-18T04:48:25.141Z,45.2
2017-02-18T04:49:05.768Z,45.1
2017-02-18T04:49:46.544Z,45.2
2017-02-18T04:50:27.181Z,45.2
2017-02-18T04:51:07.854Z,45.2
2017-02-18T04:51:48.445Z,45.39
2017-02-18T04:52:29.077Z,45.39
2017-02-18T04:53:09.709Z,45.68
2017-02-18T04:53:50.356Z,45.68
2017-02-18T04:54:30.992Z,45.78
2017-02-18T04:55:11.643Z,45.59
2017-02-18T04:55:52.271Z,45.78
2017-02-18T04:56:32.906Z,45.68
2017-02-18T04:57:13.528Z,45.78
2017-02-18T04:57:54.207Z,45.78
2017-02-18T04:58:34.855Z,45.78
2017-02-18T04:59:15.492Z,45.78
2017-02-18T04:59:56.124Z,45.78
2017-02-18T05:00:36.754Z,45.59
2017-02-18T05:01:17.377Z,45.59
2017-02-18T05:01:58.037Z,45.97
2017-02-18T05:02:38.797Z,46.06
2017-02-18T05:03:19.426Z,45.68
2017-02-18T05:04:00.055Z,45.78
2017-02-18T05:04:40.684Z,45.87
2017-02-18T05:05:21.389Z,45.68
2017-02-18T05:06:02.075Z,45.97
2017-02-18T05:06:42.668Z,45.97
2017-02-18T05:07:23.292Z,46.16
2017-02-18T05:08:03.933Z,46.55
2017-02-18T05:08:44.590Z,46.16
2017-02-18T05:09:25.204Z,46.64
2017-02-18T05:10:05.836Z,46.55
2017-02-18T05:10:46.459Z,45.68
2017-02-18T05:11:27.143Z,45.78
2017-02-18T05:12:07.789Z,45.97
2017-02-18T05:12:48.419Z,46.06
2017-02-18T05:13:29.049Z,46.36
2017-02-18T05:14:09.679Z,46.26
2017-02-18T05:14:50.307Z,46.74
2017-02-18T05:15:31.015Z,46.45
2017-02-18T05:16:11.664Z,46.45
2017-02-18T05:16:52.304Z,46.55
2017-02-18T05:17:32.921Z,46.74
2017-02-18T05:18:13.558Z,46.64
2017-02-18T05:18:54.224Z,47.13
2017-02-18T05:19:34.864Z,47.03
2017-02-18T05:20:15.495Z,47.13
2017-02-18T05:20:56.151Z,47.03
2017-02-18T05:21:36.796Z,46.55
2017-02-18T05:22:17.423Z,46.55
2017-02-18T05:22:58.064Z,46.45
2017-02-18T05:23:38.696Z,47.13
2017-02-18T05:24:19.323Z,47.13
2017-02-18T05:24:59.940Z,47.03
2017-02-18T05:25:40.568Z,47.03
2017-02-18T05:26:21.191Z,47.13
2017-02-18T05:27:01.834Z,47.13
2017-02-18T05:27:42.504Z,46.93
2017-02-18T05:28:23.154Z,46.93
2017-02-18T05:29:03.789Z,46.93
2017-02-18T05:29:44.428Z,46.84
2017-02-18T05:30:25.074Z,46.84
2017-02-18T05:31:05.722Z,47.03
2017-02-18T05:31:46.448Z,46.93
2017-02-18T05:32:27.099Z,46.64
2017-02-18T05:33:07.751Z,46.55
2017-02-18T05:33:48.406Z,47.13
2017-02-18T05:34:29.035Z,47.41
2017-02-18T05:35:09.688Z,47.41
2017-02-18T05:35:50.395Z,46.93
2017-02-18T05:36:31.023Z,47.22
2017-02-18T05:37:11.658Z,47.41
2017-02-18T05:37:52.293Z,47.22
2017-02-18T05:38:32.918Z,47.41
2017-02-18T05:39:13.543Z,47.31
2017-02-18T05:39:54.228Z,47.41
2017-02-18T05:40:34.850Z,47.41
2017-02-18T05:41:15.493Z,47.31
2017-02-18T05:41:56.119Z,47.31
2017-02-18T05:42:36.752Z,47.22
2017-02-18T05:43:17.462Z,47.31
2017-02-18T05:43:58.087Z,47.31
2017-02-18T05:44:38.706Z,47.51
2017-02-18T05:45:19.395Z,47.31
2017-02-18T05:46:00.041Z,47.13
2017-02-18T05:46:40.677Z,47.22
2017-02-18T05:47:21.353Z,46.93
2017-02-18T05:48:01.986Z,47.22
2017-02-18T05:48:42.613Z,47.03
2017-02-18T05:49:23.238Z,47.51
2017-02-18T05:50:03.876Z,47.51
2017-02-18T05:50:44.501Z,47.03
2017-02-18T05:51:25.128Z,47.51
2017-02-18T05:52:05.798Z,47.41
2017-02-18T05:52:46.415Z,47.41
2017-02-18T05:53:27.047Z,47.61
2017-02-18T05:54:07.685Z,47.03
2017-02-18T05:54:48.333Z,47.22
2017-02-18T05:55:28.958Z,47.41
2017-02-18T05:56:09.581Z,47.7
2017-02-18T05:56:50.206Z,47.51
2017-02-18T05:57:30.853Z,47.61
2017-02-18T05:58:11.545Z,47.51
2017-02-18T05:58:52.170Z,47.61
2017-02-18T05:59:32.801Z,47.51
2017-02-18T06:00:13.528Z,47.7
2017-02-18T06:00:54.152Z,47.61
2017-02-18T06:01:34.783Z,47.51
2017-02-18T06:02:15.462Z,47.61
2017-02-18T06:02:56.092Z,47.8
2017-02-18T06:03:36.730Z,47.7
2017-02-18T06:04:17.388Z,47.7
2017-02-18T06:04:58.014Z,47.61
2017-02-18T06:05:38.648Z,47.89
2017-02-18T06:06:19.275Z,47.61
2017-02-18T06:06:59.899Z,47.7
2017-02-18T06:07:40.540Z,47.41
2017-02-18T06:08:21.183Z,47.61
2017-02-18T06:09:01.812Z,47.99
2017-02-18T06:09:42.444Z,47.7
2017-02-18T06:10:23.071Z,47.41
2017-02-18T06:11:03.703Z,47.61
2017-02-18T06:11:44.339Z,47.41
2017-02-18T06:12:24.997Z,47.61
2017-02-18T06:13:05.644Z,47.8
2017-02-18T06:13:46.307Z,47.8
2017-02-18T06:14:26.938Z,47.7
2017-02-18T06:15:07.566Z,47.51
2017-02-18T06:15:48.190Z,47.7
2017-02-18T06:16:28.827Z,47.8
2017-02-18T06:17:09.449Z,47.89
2017-02-18T06:17:50.170Z,47.99
2017-02-18T06:18:30.769Z,47.89
2017-02-18T06:19:11.405Z,47.89
2017-02-18T06:19:52.030Z,47.89
2017-02-18T06:20:32.652Z,47.7
2017-02-18T06:21:13.285Z,47.89
2017-02-18T06:21:54.036Z,47.8
2017-02-18T06:22:34.681Z,47.89
2017-02-18T06:23:15.308Z,47.99
2017-02-18T06:23:55.962Z,47.99
2017-02-18T06:24:36.615Z,48.08
2017-02-18T06:25:17.254Z,47.99
2017-02-18T06:25:57.887Z,47.89
2017-02-18T06:26:38.589Z,47.8
2017-02-18T06:27:19.253Z,47.61
2017-02-18T06:27:59.911Z,47.61
2017-02-18T06:28:40.538Z,47.7
2017-02-18T06:29:21.157Z,47.7
2017-02-18T06:30:01.790Z,48.08
2017-02-18T06:30:42.484Z,48.08
2017-02-18T06:31:23.109Z,47.89
2017-02-18T06:32:03.736Z,48.18
2017-02-18T06:32:44.411Z,47.99
2017-02-18T06:33:25.094Z,47.99
2017-02-18T06:34:05.726Z,48.08
2017-02-18T06:34:46.348Z,47.89
2017-02-18T06:35:26.994Z,47.89
2017-02-18T06:36:07.623Z,48.18
2017-02-18T06:36:48.339Z,47.89
2017-02-18T06:37:28.966Z,47.8
2017-02-18T06:38:09.611Z,47.99
2017-02-18T06:38:50.330Z,48.08
2017-02-18T06:39:30.956Z,48.08
2017-02-18T06:40:11.582Z,48.18
2017-02-18T06:40:52.285Z,48.18
2017-02-18T06:41:32.950Z,48.28
2017-02-18T06:42:13.576Z,48.18
2017-02-18T06:42:54.199Z,48.18
2017-02-18T06:43:34.903Z,47.89
2017-02-18T06:44:15.549Z,48.28
2017-02-18T06:44:56.174Z,48.08
2017-02-18T06:45:36.805Z,48.28
2017-02-18T06:46:17.433Z,48.08
2017-02-18T06:46:58.070Z,48.18
2017-02-18T06:47:38.699Z,47.99
2017-02-18T06:48:19.336Z,48.28
2017-02-18T06:48:59.964Z,47.7
2017-02-18T06:49:40.619Z,48.08
2017-02-18T06:50:21.241Z,47.99
2017-02-18T06:51:01.869Z,48.08
2017-02-18T06:51:42.561Z,48.08
2017-02-18T06:52:23.168Z,48.08
2017-02-18T06:53:03.800Z,48.08
2017-02-18T06:53:44.455Z,48.08
2017-02-18T06:54:25.085Z,48.18
2017-02-18T06:55:05.713Z,48.38
2017-02-18T06:55:46.337Z,48.38
2017-02-18T06:56:26.965Z,48.28
2017-02-18T06:57:07.600Z,48.28
2017-02-18T06:57:48.228Z,48.28
2017-02-18T06:58:28.849Z,48.47
2017-02-18T06:59:09.478Z,48.28
2017-02-18T06:59:50.104Z,48.08
2017-02-18T07:00:30.722Z,48.47
2017-02-18T07:01:11.436Z,48.28
2017-02-18T07:01:52.063Z,48.28
2017-02-18T07:02:32.711Z,48.47
2017-02-18T07:03:13.332Z,48.28
2017-02-18T07:03:54.000Z,48.18
2017-02-18T07:04:34.630Z,48.28
2017-02-18T07:05:15.263Z,48.38
2017-02-18T07:05:55.887Z,48.18
2017-02-18T07:06:36.512Z,48.47
2017-02-18T07:07:17.136Z,48.47
2017-02-18T07:07:57.774Z,48.38
2017-02-18T07:08:38.398Z,48.08
2017-02-18T07:09:19.030Z,48.38
2017-02-18T07:09:59.756Z,48.28
2017-02-18T07:10:40.379Z,48.18
2017-02-18T07:11:21.007Z,48.38
2017-02-18T07:12:01.630Z,48.18
2017-02-18T07:12:42.261Z,48.47
2017-02-18T07:13:22.892Z,48.47
2017-02-18T07:14:03.617Z,48.18
2017-02-18T07:14:44.243Z,48.47
2017-02-18T07:15:24.864Z,48.18
2017-02-18T07:16:05.487Z,48.38
2017-02-18T07:16:46.119Z,48.38
2017-02-18T07:17:26.744Z,48.28
2017-02-18T07:18:07.394Z,48.38
2017-02-18T07:18:48.035Z,48.57
2017-02-18T07:19:28.663Z,48.47
2017-02-18T07:20:09.293Z,48.47
2017-02-18T07:20:49.917Z,48.38
2017-02-18T07:21:30.547Z,48.38
2017-02-18T07:22:11.172Z,48.47
2017-02-18T07:22:51.813Z,48.47
2017-02-18T07:23:32.509Z,48.38
2017-02-18T07:24:13.181Z,48.38
2017-02-18T07:24:53.810Z,48.47
2017-02-18T07:25:34.432Z,48.38
2017-02-18T07:26:15.103Z,48.47
2017-02-18T07:26:55.737Z,48.38
2017-02-18T07:27:36.366Z,48.47
2017-02-18T07:28:16.992Z,48.47
2017-02-18T07:28:57.628Z,48.47
2017-02-18T07:29:38.359Z,48.38
2017-02-18T07:30:19.027Z,48.38
2017-02-18T07:30:59.659Z,48.57
2017-02-18T07:31:40.292Z,48.57
2017-02-18T07:32:20.927Z,48.66
2017-02-18T07:33:01.558Z,48.66
2017-02-18T07:33:42.209Z,48.66
2017-02-18T07:34:22.839Z,48.66
2017-02-18T07:35:03.468Z,48.66
2017-02-18T07:35:44.099Z,48.66
2017-02-18T07:36:24.759Z,48.57
2017-02-18T07:37:05.384Z,48.57
2017-02-18T07:37:46.020Z,48.57
2017-02-18T07:38:26.644Z,48.76
2017-02-18T07:39:07.279Z,48.66
2017-02-18T07:39:47.917Z,48.57
2017-02-18T07:40:28.553Z,48.47
2017-02-18T07:41:09.192Z,48.66
2017-02-18T07:41:49.818Z,48.66
2017-02-18T07:42:30.454Z,48.66
2017-02-18T07:43:11.077Z,48.57
2017-02-18T07:43:51.735Z,48.66
2017-02-18T07:44:32.461Z,48.76
2017-02-18T07:45:13.132Z,48.76
2017-02-18T07:45:53.716Z,48.66
2017-02-18T07:46:34.465Z,48.66
2017-02-18T07:47:15.102Z,48.66
2017-02-18T07:47:55.736Z,48.76
2017-02-18T07:48:36.361Z,48.76
2017-02-18T07:49:16.995Z,48.76
2017-02-18T07:49:57.627Z,48.76
2017-02-18T07:50:38.259Z,48.57
2017-02-18T07:51:18.885Z,48.95
2017-02-18T07:51:59.543Z,48.47
2017-02-18T07:52:40.177Z,48.66
2017-02-18T07:53:20.803Z,48.76
2017-02-18T07:54:01.429Z,48.76
2017-02-18T07:54:42.175Z,48.76
2017-02-18T07:55:22.816Z,48.57
2017-02-18T07:56:03.437Z,48.66
2017-02-18T07:56:44.062Z,48.76
2017-02-18T07:57:24.691Z,48.57
2017-02-18T07:58:05.317Z,48.66
2017-02-18T07:58:45.951Z,48.76
2017-02-18T07:59:26.579Z,48.76
2017-02-18T08:00:07.206Z,48.66
2017-02-18T08:00:47.833Z,48.57
2017-02-18T08:01:28.529Z,48.66
2017-02-18T08:02:09.097Z,48.76
2017-02-18T08:02:49.733Z,49.05
2017-02-18T08:03:30.364Z,48.95
2017-02-18T08:04:11.028Z,48.95
2017-02-18T08:04:51.707Z,48.95
2017-02-18T08:05:32.333Z,48.95
2017-02-18T08:06:12.960Z,48.85
2017-02-18T08:06:53.636Z,48.85
2017-02-18T08:07:34.308Z,48.85
2017-02-18T08:08:14.899Z,48.95
2017-02-18T08:08:55.551Z,48.85
2017-02-18T08:09:36.178Z,48.95
2017-02-18T08:10:16.820Z,48.95
2017-02-18T08:10:57.485Z,48.76
2017-02-18T08:11:38.110Z,49.05
2017-02-18T08:12:18.740Z,48.95
2017-02-18T08:12:59.394Z,48.85
2017-02-18T08:13:40.024Z,48.95
2017-02-18T08:14:20.648Z,48.66
2017-02-18T08:15:01.272Z,48.85
2017-02-18T08:15:41.905Z,48.76
2017-02-18T08:16:22.531Z,48.85
2017-02-18T08:17:03.156Z,48.76
2017-02-18T08:17:43.796Z,48.76
2017-02-18T08:18:24.435Z,48.85
2017-02-18T08:19:05.066Z,48.95
2017-02-18T08:19:45.693Z,48.76
2017-02-18T08:20:26.317Z,48.76
2017-02-18T08:21:06.943Z,49.31
2017-02-18T08:21:47.571Z,49.05
2017-02-18T08:22:28.213Z,48.95
2017-02-18T08:23:08.839Z,48.85
2017-02-18T08:23:49.463Z,48.76
2017-02-18T08:24:30.192Z,48.76
2017-02-18T08:25:10.830Z,48.85
2017-02-18T08:25:51.453Z,48.93
2017-02-18T08:26:32.083Z,49.15
2017-02-18T08:27:12.720Z,49.15
2017-02-18T08:27:53.350Z,49.15
2017-02-18T08:28:33.989Z,49.15
2017-02-18T08:29:14.615Z,48.85
2017-02-18T08:29:55.244Z,48.95
2017-02-18T08:30:35.878Z,49.05
2017-02-18T08:31:16.592Z,48.85
2017-02-18T08:31:57.150Z,49.33
2017-02-18T08:32:37.776Z,48.76
2017-02-18T08:33:18.402Z,49.24
2017-02-18T08:33:59.029Z,49.15
2017-02-18T08:34:39.658Z,48.95
2017-02-18T08:35:20.278Z,48.85
2017-02-18T08:36:00.923Z,48.85
2017-02-18T08:36:41.558Z,49.15
2017-02-18T08:37:22.178Z,48.93
2017-02-18T08:38:02.807Z,49.24
2017-02-18T08:38:43.437Z,49.15
2017-02-18T08:39:24.075Z,49.15
2017-02-18T08:40:04.720Z,49.33
2017-02-18T08:40:45.347Z,49.05
2017-02-18T08:41:25.973Z,49.05
2017-02-18T08:42:06.637Z,49.24
2017-02-18T08:42:47.263Z,49.15
2017-02-18T08:43:27.900Z,49.05
2017-02-18T08:44:08.566Z,48.95
2017-02-18T08:44:49.200Z,49.33